createdAt,value
2022-12-19T00:01:19.006Z,-9.84
2022-12-19T00:03:56.027Z,-9.84
2022-12-19T00:06:25.040Z,-9.90
2022-12-19T00:08:54.960Z,-9.93
2022-12-19T00:11:24.484Z,-9.95
2022-12-19T00:13:52.683Z,-9.95
2022-12-19T00:16:24.386Z,-9.92
2022-12-19T00:18:55.244Z,-9.90
2022-12-19T00:21:27.195Z,-9.91
2022-12-19T00:23:56.304Z,-9.92
2022-12-19T00:26:25.760Z,-9.97
2022-12-19T00:29:00.145Z,-10.04
2022-12-19T00:31:32.060Z,-10.10
2022-12-19T00:34:00.689Z,-10.07
2022-12-19T00:36:31.843Z,-10.05
2022-12-19T00:39:02.530Z,-10.07
2022-12-19T00:41:41.494Z,-10.12
2022-12-19T00:44:15.971Z,-10.13
2022-12-19T00:46:47.824Z,-10.13
2022-12-19T00:49:21.834Z,-10.18
2022-12-19T00:51:50.127Z,-10.27
2022-12-19T00:54:18.165Z,-10.33
2022-12-19T00:56:46.480Z,-10.33
2022-12-19T00:59:14.627Z,-10.34
2022-12-19T01:01:46.511Z,-10.41
2022-12-19T01:04:34.454Z,-10.48
2022-12-19T01:07:05.876Z,-10.54
2022-12-19T01:09:35.463Z,-10.57
2022-12-19T01:12:24.734Z,-10.59
2022-12-19T01:15:04.016Z,-10.60
2022-12-19T01:17:37.766Z,-10.60
2022-12-19T01:20:21.354Z,-10.59
2022-12-19T01:23:00.281Z,-10.60
2022-12-19T01:25:29.307Z,-10.60
2022-12-19T01:27:57.793Z,-10.60
2022-12-19T01:30:27.685Z,-10.61
2022-12-19T01:32:58.291Z,-10.61
2022-12-19T01:35:28.782Z,-10.62
2022-12-19T01:38:06.108Z,-10.63
2022-12-19T01:40:36.964Z,-10.62
2022-12-19T01:43:05.121Z,-10.57
2022-12-19T01:45:42.142Z,-10.56
2022-12-19T01:48:18.215Z,-10.57
2022-12-19T01:51:01.988Z,-10.58
2022-12-19T01:53:48.595Z,-10.58
2022-12-19T01:56:22.234Z,-10.57
2022-12-19T01:59:05.788Z,-10.55
2022-12-19T02:01:49.549Z,-10.55
2022-12-19T02:04:20.945Z,-10.52
2022-12-19T02:06:50.401Z,-10.47
2022-12-19T02:09:19.173Z,-10.44
2022-12-19T02:11:51.634Z,-10.43
2022-12-19T02:14:22.521Z,-10.47
2022-12-19T02:17:25.115Z,-10.52
2022-12-19T02:20:07.474Z,-10.53
2022-12-19T02:22:49.225Z,-10.55
2022-12-19T02:25:33.376Z,-10.56
2022-12-19T02:28:36.034Z,-10.55
2022-12-19T02:31:22.185Z,-10.51
2022-12-19T02:34:09.959Z,-10.48
2022-12-19T02:36:55.662Z,-10.50
2022-12-19T02:39:27.248Z,-10.55
2022-12-19T02:41:59.131Z,-10.55
2022-12-19T02:44:42.832Z,-10.53
2022-12-19T02:47:11.507Z,-10.49
2022-12-19T02:49:39.881Z,-10.44
2022-12-19T02:52:32.437Z,-10.46
2022-12-19T02:55:06.340Z,-10.50
2022-12-19T02:58:17.036Z,-10.49
2022-12-19T03:00:58.442Z,-10.47
2022-12-19T03:03:56.681Z,-10.48
2022-12-19T03:06:47.621Z,-10.46
2022-12-19T03:09:27.499Z,-10.40
2022-12-19T03:12:05.286Z,-10.37
2022-12-19T03:14:35.771Z,-10.32
2022-12-19T03:17:07.281Z,-10.27
2022-12-19T03:19:38.701Z,-10.26
2022-12-19T03:22:08.036Z,-10.24
2022-12-19T03:24:36.712Z,-10.22
2022-12-19T03:27:22.362Z,-10.23
2022-12-19T03:29:59.967Z,-10.19
2022-12-19T03:32:30.075Z,-10.06
2022-12-19T03:35:09.521Z,-10.02
2022-12-19T03:37:40.962Z,-10.08
2022-12-19T03:40:18.178Z,-10.10
2022-12-19T03:43:06.638Z,-10.05
2022-12-19T03:45:50.495Z,-9.98
2022-12-19T03:48:26.568Z,-9.92
2022-12-19T03:51:17.232Z,-9.86
2022-12-19T03:53:50.982Z,-9.80
2022-12-19T03:56:44.799Z,-9.72
2022-12-19T03:59:26.807Z,-9.67
2022-12-19T04:01:55.655Z,-9.65
2022-12-19T04:04:26.066Z,-9.59
2022-12-19T04:06:55.961Z,-9.50
2022-12-19T04:09:25.042Z,-9.45
2022-12-19T04:12:08.777Z,-9.48
2022-12-19T04:14:38.888Z,-9.52
2022-12-19T04:17:09.807Z,-9.62
2022-12-19T04:19:48.472Z,-9.64
2022-12-19T04:22:22.787Z,-9.64
2022-12-19T04:24:52.067Z,-9.66
2022-12-19T04:27:21.996Z,-9.67
2022-12-19T04:29:55.479Z,-9.69
2022-12-19T04:32:25.613Z,-9.70
2022-12-19T04:34:53.662Z,-9.65
2022-12-19T04:37:21.704Z,-9.59
2022-12-19T04:39:49.899Z,-9.49
2022-12-19T04:42:17.937Z,-9.47
2022-12-19T04:44:46.074Z,-9.52
2022-12-19T04:47:14.380Z,-9.55
2022-12-19T04:49:42.404Z,-9.56
2022-12-19T04:52:10.588Z,-9.57
2022-12-19T04:54:39.427Z,-9.58
2022-12-19T04:57:07.861Z,-9.58
2022-12-19T04:59:35.859Z,-9.57
2022-12-19T05:02:07.211Z,-9.52
2022-12-19T05:04:35.306Z,-9.49
2022-12-19T05:07:03.345Z,-9.43
2022-12-19T05:09:31.383Z,-9.39
2022-12-19T05:11:59.475Z,-9.35
2022-12-19T05:14:27.890Z,-9.29
2022-12-19T05:17:01.259Z,-9.26
2022-12-19T05:19:29.974Z,-9.13
2022-12-19T05:21:58.279Z,-9.10
2022-12-19T05:24:26.379Z,-9.21
2022-12-19T05:26:54.459Z,-9.32
2022-12-19T05:29:22.875Z,-9.44
2022-12-19T05:31:50.947Z,-9.45
2022-12-19T05:34:19.037Z,-9.45
2022-12-19T05:36:47.071Z,-9.42
2022-12-19T05:39:15.188Z,-9.40
2022-12-19T05:41:46.376Z,-9.35
2022-12-19T05:44:17.404Z,-9.34
2022-12-19T05:46:45.584Z,-9.39
2022-12-19T05:49:13.828Z,-9.47
2022-12-19T05:51:41.924Z,-9.62
2022-12-19T05:54:09.983Z,-9.74
2022-12-19T05:56:38.040Z,-9.83
2022-12-19T05:59:06.127Z,-9.84
2022-12-19T06:01:34.436Z,-9.82
2022-12-19T06:04:02.642Z,-9.77
2022-12-19T06:06:31.691Z,-9.78
2022-12-19T06:09:00.470Z,-9.76
2022-12-19T06:11:28.632Z,-9.71
2022-12-19T06:13:56.902Z,-9.73
2022-12-19T06:16:24.975Z,-9.83
2022-12-19T06:18:54.067Z,-9.89
2022-12-19T06:21:23.377Z,-9.82
2022-12-19T06:23:51.383Z,-9.71
2022-12-19T06:26:21.548Z,-9.72
2022-12-19T06:28:52.333Z,-9.84
2022-12-19T06:31:22.646Z,-9.83
2022-12-19T06:33:51.013Z,-9.78
2022-12-19T06:36:25.134Z,-9.80
2022-12-19T06:38:54.736Z,-9.78
2022-12-19T06:41:41.521Z,-9.77
2022-12-19T06:44:12.773Z,-9.79
2022-12-19T06:46:42.046Z,-9.85
2022-12-19T06:49:11.578Z,-9.88
2022-12-19T06:51:39.896Z,-9.81
2022-12-19T06:54:07.909Z,-9.73
2022-12-19T06:56:37.801Z,-9.65
2022-12-19T06:59:06.967Z,-9.57
2022-12-19T07:01:48.306Z,-9.44
2022-12-19T07:04:24.067Z,-9.36
2022-12-19T07:06:52.295Z,-9.34
2022-12-19T07:09:20.505Z,-9.29
2022-12-19T07:11:48.795Z,-9.23
2022-12-19T07:14:16.798Z,-9.26
2022-12-19T07:16:46.557Z,-9.28
2022-12-19T07:19:15.439Z,-9.26
2022-12-19T07:21:44.153Z,-9.22
2022-12-19T07:24:15.021Z,-9.17
2022-12-19T07:26:43.908Z,-9.12
2022-12-19T07:29:12.598Z,-9.11
2022-12-19T07:31:40.831Z,-9.06
2022-12-19T07:34:10.170Z,-9.01
2022-12-19T07:36:38.274Z,-8.91
2022-12-19T07:39:06.396Z,-8.87
2022-12-19T07:41:37.489Z,-8.86
2022-12-19T07:44:06.737Z,-8.79
2022-12-19T07:46:35.262Z,-8.68
2022-12-19T07:49:03.343Z,-8.58
2022-12-19T07:51:31.377Z,-8.48
2022-12-19T07:54:00.436Z,-8.41
2022-12-19T07:56:28.909Z,-8.35
2022-12-19T07:58:57.084Z,-8.30
2022-12-19T08:01:25.249Z,-8.24
2022-12-19T08:03:58.192Z,-8.13
2022-12-19T08:06:27.532Z,-7.99
2022-12-19T08:08:57.285Z,-7.90
2022-12-19T08:11:29.860Z,-7.84
2022-12-19T08:13:58.103Z,-7.76
2022-12-19T08:16:28.164Z,-7.70
2022-12-19T08:18:56.384Z,-7.61
2022-12-19T08:21:25.440Z,-7.53
2022-12-19T08:23:53.595Z,-7.49
2022-12-19T08:26:26.325Z,-7.46
2022-12-19T08:28:57.139Z,-7.42
2022-12-19T08:31:27.265Z,-7.36
2022-12-19T08:33:56.981Z,-7.32
2022-12-19T08:36:25.586Z,-7.29
2022-12-19T08:38:54.524Z,-7.24
2022-12-19T08:41:23.380Z,-7.18
2022-12-19T08:43:53.378Z,-7.11
2022-12-19T08:46:22.568Z,-7.07
2022-12-19T08:48:50.920Z,-7.02
2022-12-19T08:51:19.969Z,-6.94
2022-12-19T08:53:48.792Z,-6.91
2022-12-19T08:56:19.473Z,-6.91
2022-12-19T08:58:48.634Z,-6.89
2022-12-19T09:01:23.994Z,-6.86
2022-12-19T09:04:18.293Z,-6.84
2022-12-19T09:06:43.404Z,-6.83
2022-12-19T09:09:11.609Z,-6.77
2022-12-19T09:11:47.886Z,-6.69
2022-12-19T09:14:20.943Z,-6.64
2022-12-19T09:16:49.789Z,-6.59
2022-12-19T09:19:18.203Z,-6.55
2022-12-19T09:21:46.289Z,-6.52
2022-12-19T09:24:15.269Z,-6.48
2022-12-19T09:26:44.700Z,-6.45
2022-12-19T09:29:20.487Z,-6.40
2022-12-19T09:31:55.820Z,-6.30
2022-12-19T09:34:38.317Z,-6.23
2022-12-19T09:37:09.187Z,-6.16
2022-12-19T09:39:43.731Z,-6.09
2022-12-19T09:42:20.963Z,-6.08
2022-12-19T09:45:01.677Z,-6.11
2022-12-19T09:47:33.149Z,-6.13
2022-12-19T09:50:02.630Z,-6.18
2022-12-19T09:52:41.212Z,-6.18
2022-12-19T09:55:20.550Z,-6.17
2022-12-19T09:57:51.720Z,-6.17
2022-12-19T10:00:22.467Z,-6.14
2022-12-19T10:03:01.512Z,-6.09
2022-12-19T10:06:52.540Z,-5.99
2022-12-19T10:08:45.656Z,-5.87
2022-12-19T10:12:38.548Z,-5.83
2022-12-19T10:15:14.938Z,-5.79
2022-12-19T10:18:05.479Z,-5.72
2022-12-19T10:20:40.923Z,-5.65
2022-12-19T10:23:18.076Z,-5.57
2022-12-19T10:26:00.429Z,-5.48
2022-12-19T10:28:50.249Z,-5.45
2022-12-19T10:31:27.350Z,-5.38
2022-12-19T10:34:07.096Z,-5.29
2022-12-19T10:39:51.566Z,-5.12
2022-12-19T10:42:37.743Z,-4.97
2022-12-19T10:45:14.578Z,-4.84
2022-12-19T10:47:42.790Z,-4.70
2022-12-19T10:50:23.140Z,-4.63
2022-12-19T10:53:03.400Z,-4.65
2022-12-19T10:55:45.669Z,-4.63
2022-12-19T10:58:22.888Z,-4.61
2022-12-19T11:01:12.166Z,-4.58
2022-12-19T11:03:43.729Z,-4.50
2022-12-19T11:06:43.893Z,-4.42
2022-12-19T11:09:22.855Z,-4.35
2022-12-19T11:13:20.132Z,-4.29
2022-12-19T11:20:52.910Z,-4.25
2022-12-19T11:27:48.698Z,-4.16
2022-12-19T11:30:05.876Z,-4.06
2022-12-19T11:30:38.645Z,-3.97
2022-12-19T11:30:46.767Z,-3.98
2022-12-19T11:31:48.175Z,-3.95
2022-12-19T11:33:21.194Z,-3.92
2022-12-19T11:35:52.989Z,-3.89
2022-12-19T11:38:48.808Z,-3.82
2022-12-19T11:41:25.650Z,-3.69
2022-12-19T11:44:02.229Z,-3.64
2022-12-19T11:46:52.852Z,-3.59
2022-12-19T11:49:27.162Z,-3.61
2022-12-19T11:51:56.787Z,-3.59
2022-12-19T11:54:38.148Z,-3.57
2022-12-19T11:57:11.784Z,-3.55
2022-12-19T11:59:41.741Z,-3.53
2022-12-19T12:02:40.344Z,-3.53
2022-12-19T12:05:24.294Z,-3.57
2022-12-19T12:10:22.938Z,-3.56
2022-12-19T12:17:32.356Z,-3.58
2022-12-19T12:23:46.594Z,-3.63
2022-12-19T12:29:14.503Z,-3.69
2022-12-19T12:31:07.145Z,-3.86
2022-12-19T12:31:10.131Z,-3.77
2022-12-19T12:31:38.594Z,-3.92
2022-12-19T12:31:49.209Z,-3.95
2022-12-19T12:35:51.514Z,-3.99
2022-12-19T12:38:48.935Z,-4.02
2022-12-19T12:41:17.166Z,-4.01
2022-12-19T12:44:08.611Z,-4.03
2022-12-19T12:46:40.661Z,-4.03
2022-12-19T12:49:46.408Z,-4.02
2022-12-19T12:52:20.247Z,-4.03
2022-12-19T12:54:50.416Z,-4.01
2022-12-19T12:57:40.048Z,-3.97
2022-12-19T13:00:16.448Z,-3.90
2022-12-19T13:02:55.153Z,-3.88
2022-12-19T13:05:32.166Z,-3.84
2022-12-19T13:08:00.373Z,-3.73
2022-12-19T13:10:31.908Z,-3.67
2022-12-19T13:13:14.277Z,-3.66
2022-12-19T13:15:45.264Z,-3.58
2022-12-19T13:18:30.882Z,-3.51
2022-12-19T13:21:03.866Z,-3.46
2022-12-19T13:23:37.844Z,-3.25
2022-12-19T13:26:21.432Z,-3.19
2022-12-19T13:28:49.536Z,-3.21
2022-12-19T13:31:22.278Z,-3.21
2022-12-19T13:33:56.392Z,-3.19
2022-12-19T13:39:48.075Z,-3.19
2022-12-19T13:40:13.539Z,-3.17
2022-12-19T13:43:26.334Z,-3.23
2022-12-19T13:46:01.041Z,-3.31
2022-12-19T13:48:41.810Z,-3.35
2022-12-19T13:51:11.431Z,-3.36
2022-12-19T13:53:40.959Z,-3.41
2022-12-19T13:56:09.020Z,-3.41
2022-12-19T13:58:44.301Z,-3.43
2022-12-19T14:01:32.719Z,-3.50
2022-12-19T14:04:08.011Z,-3.53
2022-12-19T14:06:47.339Z,-3.50
2022-12-19T14:11:26.273Z,-3.59
2022-12-19T14:13:58.131Z,-3.65
2022-12-19T14:15:51.907Z,-3.68
2022-12-19T14:18:42.407Z,-3.73
2022-12-19T14:22:06.313Z,-3.80
2022-12-19T14:24:18.773Z,-3.90
2022-12-19T14:28:23.280Z,-4.02
2022-12-19T14:30:30.182Z,-4.11
2022-12-19T14:33:44.841Z,-4.10
2022-12-19T14:36:09.593Z,-4.16
2022-12-19T14:39:25.611Z,-4.17
2022-12-19T14:41:48.693Z,-4.18
2022-12-19T14:53:10.811Z,-4.22
2022-12-19T14:53:52.111Z,-4.18
2022-12-19T14:54:09.044Z,-4.24
2022-12-19T14:54:48.108Z,-4.26
2022-12-19T14:56:16.822Z,-4.29
2022-12-19T14:58:53.567Z,-4.31
2022-12-19T15:01:29.868Z,-4.35
2022-12-19T15:04:52.467Z,-4.42
2022-12-19T15:07:07.281Z,-4.50
2022-12-19T15:11:09.294Z,-4.57
2022-12-19T15:14:55.375Z,-4.66
2022-12-19T15:16:27.129Z,-4.79
2022-12-19T15:18:58.462Z,-4.85
2022-12-19T15:21:28.206Z,-4.87
2022-12-19T15:23:57.012Z,-4.89
2022-12-19T15:26:32.754Z,-4.89
2022-12-19T15:29:02.001Z,-4.87
2022-12-19T15:31:35.146Z,-4.85
2022-12-19T15:34:41.878Z,-4.84
2022-12-19T15:37:11.839Z,-4.85
2022-12-19T15:39:41.043Z,-4.85
2022-12-19T15:42:23.066Z,-4.86
2022-12-19T15:44:53.522Z,-4.86
2022-12-19T15:47:31.449Z,-4.87
2022-12-19T15:50:06.809Z,-4.90
2022-12-19T15:52:34.930Z,-4.95
2022-12-19T15:55:03.138Z,-4.95
2022-12-19T15:57:36.096Z,-4.94
2022-12-19T16:00:08.473Z,-4.93
2022-12-19T16:03:20.464Z,-4.92
2022-12-19T16:05:29.610Z,-4.97
2022-12-19T16:07:59.217Z,-5.02
2022-12-19T16:10:27.527Z,-5.07
2022-12-19T16:12:57.968Z,-5.07
2022-12-19T16:15:26.350Z,-5.02
2022-12-19T16:17:55.474Z,-4.99
2022-12-19T16:20:29.231Z,-4.96
2022-12-19T16:22:58.038Z,-4.88
2022-12-19T16:25:33.847Z,-4.86
2022-12-19T16:28:03.865Z,-4.88
2022-12-19T16:30:33.957Z,-4.87
2022-12-19T16:33:02.408Z,-4.80
2022-12-19T16:38:20.099Z,-4.73
2022-12-19T16:40:50.562Z,-4.75
2022-12-19T16:43:32.283Z,-4.81
2022-12-19T16:46:02.051Z,-4.89
2022-12-19T16:48:30.746Z,-4.96
2022-12-19T16:50:59.397Z,-5.01
2022-12-19T16:53:27.766Z,-5.05
2022-12-19T16:55:57.347Z,-5.04
2022-12-19T16:58:28.395Z,-5.04
2022-12-19T17:00:57.043Z,-5.00
2022-12-19T17:03:38.234Z,-4.94
2022-12-19T17:06:06.515Z,-4.94
2022-12-19T17:08:34.638Z,-4.95
2022-12-19T17:11:03.675Z,-4.93
2022-12-19T17:13:31.850Z,-4.91
2022-12-19T17:16:00.713Z,-4.89
2022-12-19T17:18:34.847Z,-4.78
2022-12-19T17:21:03.249Z,-4.27
2022-12-19T17:23:32.769Z,-4.11
2022-12-19T17:26:01.343Z,-4.05
2022-12-19T17:28:30.015Z,-4.04
2022-12-19T17:31:02.926Z,-4.06
2022-12-19T17:33:38.259Z,-4.07
2022-12-19T17:36:11.491Z,-4.01
2022-12-19T17:38:39.630Z,-4.00
2022-12-19T17:41:17.280Z,-3.97
2022-12-19T17:43:45.808Z,-3.94
2022-12-19T17:46:23.009Z,-3.87
2022-12-19T17:48:53.764Z,-3.86
2022-12-19T17:51:23.429Z,-3.83
2022-12-19T17:53:51.724Z,-3.85
2022-12-19T17:56:21.149Z,-3.86
2022-12-19T17:58:49.615Z,-3.80
2022-12-19T18:01:23.244Z,-3.76
2022-12-19T18:03:53.333Z,-3.71
2022-12-19T18:06:21.683Z,-3.72
2022-12-19T18:08:49.874Z,-3.73
2022-12-19T18:11:19.741Z,-3.74
2022-12-19T18:13:48.867Z,-3.75
2022-12-19T18:16:20.881Z,-3.78
2022-12-19T18:18:49.842Z,-3.87
2022-12-19T18:21:21.313Z,-3.97
2022-12-19T18:23:49.616Z,-4.05
2022-12-19T18:26:18.157Z,-4.13
2022-12-19T18:28:46.279Z,-4.20
2022-12-19T18:31:25.887Z,-4.24
2022-12-19T18:33:55.394Z,-4.29
2022-12-19T18:36:28.793Z,-4.32
2022-12-19T18:38:58.269Z,-4.32
2022-12-19T18:41:26.764Z,-4.27
2022-12-19T18:43:54.965Z,-4.24
2022-12-19T18:46:27.718Z,-4.20
2022-12-19T18:48:56.008Z,-4.17
2022-12-19T18:51:24.298Z,-4.12
2022-12-19T18:53:52.742Z,-4.07
2022-12-19T18:56:20.824Z,-4.04
2022-12-19T18:58:48.794Z,-4.01
2022-12-19T19:01:20.526Z,-3.97
2022-12-19T19:03:57.318Z,-3.94
2022-12-19T19:06:28.993Z,-3.87
2022-12-19T19:08:58.552Z,-3.85
2022-12-19T19:11:52.136Z,-3.83
2022-12-19T19:14:20.169Z,-3.82
2022-12-19T19:16:49.276Z,-3.80
2022-12-19T19:19:18.899Z,-3.76
2022-12-19T19:21:47.335Z,-3.75
2022-12-19T19:24:19.346Z,-3.70
2022-12-19T19:26:47.928Z,-3.66
2022-12-19T19:29:19.141Z,-3.65
2022-12-19T19:31:50.283Z,-3.64
2022-12-19T19:34:23.472Z,-3.63
2022-12-19T19:36:56.136Z,-3.63
2022-12-19T19:39:25.077Z,-3.62
2022-12-19T19:41:54.017Z,-3.62
2022-12-19T19:44:22.393Z,-3.60
2022-12-19T19:46:50.760Z,-3.59
2022-12-19T19:49:21.282Z,-3.55
2022-12-19T19:51:49.808Z,-3.52
2022-12-19T19:54:18.361Z,-3.50
2022-12-19T19:56:46.448Z,-3.47
2022-12-19T19:59:14.647Z,-3.46
2022-12-19T20:01:43.336Z,-3.43
2022-12-19T20:04:11.529Z,-3.40
2022-12-19T20:06:39.692Z,-3.38
2022-12-19T20:09:07.714Z,-3.34
2022-12-19T20:11:35.864Z,-3.28
2022-12-19T20:14:04.653Z,-3.23
2022-12-19T20:16:33.826Z,-3.20
2022-12-19T20:19:02.050Z,-3.16
2022-12-19T20:21:31.496Z,-3.13
2022-12-19T20:24:00.054Z,-3.09
2022-12-19T20:26:28.243Z,-3.05
2022-12-19T20:28:56.373Z,-3.03
2022-12-19T20:31:24.976Z,-2.98
2022-12-19T20:33:56.954Z,-2.94
2022-12-19T20:36:25.377Z,-2.90
2022-12-19T20:38:53.981Z,-2.90
2022-12-19T20:41:22.440Z,-2.85
2022-12-19T20:43:52.417Z,-2.81
2022-12-19T20:46:21.579Z,-2.79
2022-12-19T20:48:50.585Z,-2.77
2022-12-19T20:51:20.832Z,-2.74
2022-12-19T20:53:51.655Z,-2.72
2022-12-19T20:56:23.190Z,-2.68
2022-12-19T20:58:52.044Z,-2.65
2022-12-19T21:01:23.230Z,-2.62
2022-12-19T21:03:52.829Z,-2.57
2022-12-19T21:06:22.848Z,-2.52
2022-12-19T21:08:50.959Z,-2.47
2022-12-19T21:11:19.146Z,-2.41
2022-12-19T21:13:47.337Z,-2.38
2022-12-19T21:16:23.129Z,-2.33
2022-12-19T21:18:51.687Z,-2.28
2022-12-19T21:21:24.652Z,-2.23
2022-12-19T21:23:54.115Z,-2.19
2022-12-19T21:26:24.363Z,-2.16
2022-12-19T21:28:53.137Z,-2.13
2022-12-19T21:31:25.351Z,-2.11
2022-12-19T21:33:55.513Z,-2.08
2022-12-19T21:36:25.068Z,-2.05
2022-12-19T21:38:55.967Z,-2.04
2022-12-19T21:41:24.259Z,-2.03
2022-12-19T21:43:54.291Z,-2.02
2022-12-19T21:46:25.118Z,-2.00
2022-12-19T21:48:55.387Z,-1.99
2022-12-19T21:51:26.721Z,-1.98
2022-12-19T21:54:02.268Z,-1.95
2022-12-19T21:56:34.449Z,-1.91
2022-12-19T21:59:10.101Z,-1.88
2022-12-19T22:01:38.830Z,-1.86
2022-12-19T22:04:21.108Z,-1.84
2022-12-19T22:06:51.115Z,-1.82
2022-12-19T22:09:22.726Z,-1.81
2022-12-19T22:11:51.839Z,-1.81
2022-12-19T22:14:20.022Z,-1.80
2022-12-19T22:16:48.275Z,-1.79
2022-12-19T22:19:18.437Z,-1.77
2022-12-19T22:21:47.880Z,-1.74
2022-12-19T22:24:16.968Z,-1.73
2022-12-19T22:26:45.221Z,-1.72
2022-12-19T22:29:17.465Z,-1.70
2022-12-19T22:31:46.170Z,-1.68
2022-12-19T22:34:16.746Z,-1.65
2022-12-19T22:36:45.398Z,-1.63
2022-12-19T22:39:16.245Z,-1.61
2022-12-19T22:41:45.215Z,-1.58
2022-12-19T22:44:19.534Z,-1.57
2022-12-19T22:46:48.591Z,-1.56
2022-12-19T22:49:17.297Z,-1.55
2022-12-19T22:51:45.584Z,-1.54
2022-12-19T22:54:14.036Z,-1.53
2022-12-19T22:56:42.770Z,-1.52
2022-12-19T22:59:12.675Z,-1.51
2022-12-19T23:01:43.693Z,-1.50
2022-12-19T23:04:15.124Z,-1.50
2022-12-19T23:06:44.224Z,-1.49
2022-12-19T23:09:15.037Z,-1.47
2022-12-19T23:11:45.190Z,-1.45
2022-12-19T23:14:16.518Z,-1.43
2022-12-19T23:16:45.151Z,-1.42
2022-12-19T23:19:15.503Z,-1.42
2022-12-19T23:21:43.760Z,-1.41
2022-12-19T23:24:12.471Z,-1.38
2022-12-19T23:26:41.262Z,-1.36
2022-12-19T23:29:12.356Z,-1.34
2022-12-19T23:31:42.739Z,-1.33
2022-12-19T23:34:11.209Z,-1.32
2022-12-19T23:39:27.549Z,-1.31
2022-12-19T23:41:55.621Z,-1.30
2022-12-19T23:44:23.829Z,-1.28
2022-12-19T23:46:51.892Z,-1.26
2022-12-19T23:49:19.974Z,-1.24
2022-12-19T23:51:48.040Z,-1.23
2022-12-19T23:54:16.185Z,-1.21
2022-12-19T23:56:44.378Z,-1.19
2022-12-19T23:59:12.515Z,-1.19
